Lime Springs, Iowa
Current Conditions -  °F | °C
As of 3:55 AM on Sunday 21 Dec 2014 (Local Time) from KFKA Reporting Station
Haze Haze  
Wind Chill: 24°   Ceiling: 200
Heat Index: 31°   Visibility: 1mi
Dew Point: 30°   Wind: 7mph
Humidity: 99%   Direction: 150°SSE
Pressure: 30.02"   Gusts: NA
Location:  43.45°N, 92.28°W
Report Text: KFKA 210955Z AUTO 15006KT 1SM BR OVC002 M01/M01 A3002 RMK AO2 T10081010
Loading
Personal Weather Stations






























Interactive Weather Map New forecast layout! Learn more

10-Day Weather Forecast

Advertisements
Track Severe Weather on mobile